Time;durP1;ratioP1;P1;durP2;ratioP2;P2;SDS_P1;SDS_P2;PMS_P1;PMS_P2;Temp;Humidity;BMP_temperature;BMP_pressure;BME280_temperature;BME280_humidity;BME280_pressure;Samples;Min_cycle;Max_cycle;Signal;HPM_P1;HPM_P2
2021/12/04 00:01:24;;;;;;;22.80;6.40;;;;;;;;;;5072955;28;20220;-68
2021/12/04 00:03:53;;;;;;;18.52;7.25;;;;;;;;;;5073267;28;20200;-67
2021/12/04 00:06:24;;;;;;;25.95;7.05;;;;;;;;;;5073165;28;20204;-67
2021/12/04 00:08:51;;;;;;;20.58;7.15;;;;;;;;;;5073293;28;20214;-67
2021/12/04 00:11:19;;;;;;;19.70;6.25;;;;;;;;;;5072147;28;20815;-68
2021/12/04 00:13:46;;;;;;;25.85;12.63;;;;;;;;;;5073024;28;20236;-66
2021/12/04 00:16:15;;;;;;;23.20;7.78;;;;;;;;;;5073356;28;20298;-68
2021/12/04 00:18:42;;;;;;;27.48;15.13;;;;;;;;;;5072855;28;20209;-68
2021/12/04 00:21:10;;;;;;;30.27;7.40;;;;;;;;;;5072818;28;20673;-67
2021/12/04 00:23:37;;;;;;;28.08;9.38;;;;;;;;;;5072636;28;20215;-66
2021/12/04 00:26:05;;;;;;;25.65;8.05;;;;;;;;;;5072728;28;20208;-68
2021/12/04 00:28:33;;;;;;;36.75;14.55;;;;;;;;;;5072692;28;20215;-67
2021/12/04 00:31:05;;;;;;;26.55;12.60;;;;;;;;;;5072554;28;20776;-67
2021/12/04 00:33:35;;;;;;;34.05;19.92;;;;;;;;;;5072587;28;20200;-67
2021/12/04 00:36:06;;;;;;;20.85;9.40;;;;;;;;;;5072627;28;20208;-67
2021/12/04 00:49:30;;;;;;;24.85;7.32;;;;;;;;;;5072240;28;20634;-67
2021/12/04 00:51:58;;;;;;;19.92;6.25;;;;;;;;;;5072224;28;20201;-66
2021/12/04 00:54:27;;;;;;;19.90;5.22;;;;;;;;;;5072181;28;20612;-66
2021/12/04 00:56:55;;;;;;;18.85;5.80;;;;;;;;;;5072150;28;20212;-67
2021/12/04 00:59:22;;;;;;;17.73;5.07;;;;;;;;;;5071923;28;20204;-68
2021/12/04 01:01:50;;;;;;;18.75;4.40;;;;;;;;;;5072012;28;20212;-66
2021/12/04 01:04:19;;;;;;;21.15;5.25;;;;;;;;;;5072136;28;20212;-66
2021/12/04 01:06:48;;;;;;;25.27;8.18;;;;;;;;;;5072023;28;20212;-67
2021/12/04 01:09:16;;;;;;;26.52;7.28;;;;;;;;;;5071946;28;20209;-67
2021/12/04 01:11:44;;;;;;;24.27;5.55;;;;;;;;;;5071817;28;20321;-67
2021/12/04 01:14:12;;;;;;;18.70;5.78;;;;;;;;;;5071776;28;20283;-66
2021/12/04 01:16:39;;;;;;;20.67;6.60;;;;;;;;;;5072188;28;20204;-67
2021/12/04 01:19:07;;;;;;;19.17;4.88;;;;;;;;;;5071864;28;20236;-67
2021/12/04 01:21:34;;;;;;;31.20;13.15;;;;;;;;;;5071027;28;20215;-67
2021/12/04 01:24:04;;;;;;;23.25;13.88;;;;;;;;;;5071136;28;20208;-67
2021/12/04 01:26:31;;;;;;;24.88;15.10;;;;;;;;;;5071542;28;20211;-68
2021/12/04 01:28:58;;;;;;;49.17;26.52;;;;;;;;;;5071491;28;20644;-67
2021/12/04 01:31:26;;;;;;;27.90;12.75;;;;;;;;;;5071428;28;20228;-66
2021/12/04 01:33:54;;;;;;;40.08;23.80;;;;;;;;;;5064926;28;20304;-68
2021/12/04 01:36:21;;;;;;;16.15;4.28;;;;;;;;;;5071604;28;20240;-67
2021/12/04 01:38:48;;;;;;;15.23;3.88;;;;;;;;;;5071554;28;20260;-66
2021/12/04 01:41:17;;;;;;;21.92;7.18;;;;;;;;;;5071360;28;20240;-66
2021/12/04 01:43:45;;;;;;;18.05;5.55;;;;;;;;;;5071379;28;20208;-67
2021/12/04 01:46:12;;;;;;;15.20;4.05;;;;;;;;;;5071750;28;20236;-67
2021/12/04 01:48:40;;;;;;;17.80;5.22;;;;;;;;;;5071348;28;20677;-66
2021/12/04 01:51:08;;;;;;;22.65;7.90;;;;;;;;;;5070942;28;20731;-67
2021/12/04 01:53:35;;;;;;;38.53;10.90;;;;;;;;;;5070825;28;20208;-67
2021/12/04 01:56:03;;;;;;;21.35;5.78;;;;;;;;;;5070974;28;20631;-67
2021/12/04 01:58:32;;;;;;;27.10;8.35;;;;;;;;;;5071253;28;20297;-67
2021/12/04 02:01:00;;;;;;;18.33;4.90;;;;;;;;;;5071132;28;20213;-67
2021/12/04 02:03:27;;;;;;;30.85;9.77;;;;;;;;;;5070847;28;20262;-67
2021/12/04 02:05:54;;;;;;;19.52;4.47;;;;;;;;;;5070913;28;20212;-68
2021/12/04 02:08:23;;;;;;;21.00;7.13;;;;;;;;;;5070820;28;20598;-66
2021/12/04 02:10:52;;;;;;;21.83;6.57;;;;;;;;;;5070682;28;20619;-67
2021/12/04 02:13:19;;;;;;;20.77;6.45;;;;;;;;;;5070806;28;20240;-67
2021/12/04 02:15:49;;;;;;;22.40;6.32;;;;;;;;;;5070962;28;20212;-66
2021/12/04 02:18:18;;;;;;;27.20;7.10;;;;;;;;;;5063846;28;20235;-67
2021/12/04 02:20:47;;;;;;;23.48;4.88;;;;;;;;;;5070738;28;20685;-66
2021/12/04 02:23:15;;;;;;;22.67;6.80;;;;;;;;;;5071082;28;20230;-67
2021/12/04 02:25:42;;;;;;;22.05;7.30;;;;;;;;;;5070833;28;20597;-67
2021/12/04 02:28:10;;;;;;;23.45;7.25;;;;;;;;;;5070663;28;20240;-67
2021/12/04 02:30:40;;;;;;;18.98;5.32;;;;;;;;;;5070490;28;20239;-66
2021/12/04 02:33:12;;;;;;;18.88;5.43;;;;;;;;;;5070608;28;20596;-67
2021/12/04 02:35:39;;;;;;;23.42;6.20;;;;;;;;;;5070587;28;20213;-68
2021/12/04 02:38:08;;;;;;;30.52;7.82;;;;;;;;;;5070191;28;20236;-67
2021/12/04 02:40:36;;;;;;;26.00;7.10;;;;;;;;;;5070851;28;20244;-67
2021/12/04 02:43:04;;;;;;;24.63;8.32;;;;;;;;;;5064006;28;20266;-66
2021/12/04 02:45:31;;;;;;;33.58;11.40;;;;;;;;;;5070303;28;20228;-67
2021/12/04 02:47:59;;;;;;;26.70;8.43;;;;;;;;;;5071000;28;20244;-66
2021/12/04 02:50:26;;;;;;;22.95;7.72;;;;;;;;;;5070294;28;20208;-67
2021/12/04 02:52:54;;;;;;;21.05;6.15;;;;;;;;;;5070788;28;20204;-66
2021/12/04 02:55:22;;;;;;;18.23;3.72;;;;;;;;;;5070232;28;20274;-66
2021/12/04 02:57:50;;;;;;;21.63;6.47;;;;;;;;;;5070234;28;20208;-67
2021/12/04 03:00:19;;;;;;;20.65;5.22;;;;;;;;;;5070166;28;20220;-66
2021/12/04 03:02:46;;;;;;;23.30;7.47;;;;;;;;;;5070529;28;20204;-66
2021/12/04 03:05:14;;;;;;;19.70;5.40;;;;;;;;;;5063618;28;20211;-68
2021/12/04 03:07:42;;;;;;;17.88;5.55;;;;;;;;;;5070316;28;20636;-67
2021/12/04 03:10:10;;;;;;;22.02;5.65;;;;;;;;;;5070156;28;20204;-66
2021/12/04 03:12:41;;;;;;;24.50;7.68;;;;;;;;;;5070093;28;20236;-67
2021/12/04 03:15:11;;;;;;;23.42;8.90;;;;;;;;;;5070323;28;20574;-67
2021/12/04 03:17:39;;;;;;;26.50;7.93;;;;;;;;;;5070115;28;20289;-67
2021/12/04 03:20:07;;;;;;;25.50;13.00;;;;;;;;;;5070313;28;20236;-67
2021/12/04 03:22:34;;;;;;;28.45;12.27;;;;;;;;;;5070255;28;20291;-66
2021/12/04 03:25:02;;;;;;;48.97;26.42;;;;;;;;;;5070643;28;20299;-67
2021/12/04 03:27:31;;;;;;;32.85;15.32;;;;;;;;;;5069802;28;20204;-67
2021/12/04 03:30:04;;;;;;;20.98;11.73;;;;;;;;;;5070034;28;20668;-66
2021/12/04 03:35:26;;;;;;;29.50;15.82;;;;;;;;;;5043859;28;20251;-67
2021/12/04 03:40:51;;;;;;;49.03;25.48;;;;;;;;;;5070048;28;20224;-66
2021/12/04 03:43:19;;;;;;;41.92;22.85;;;;;;;;;;5069754;28;20242;-67
2021/12/04 03:45:53;;;;;;;29.92;18.23;;;;;;;;;;5071030;28;20291;-66
2021/12/04 03:48:50;;;;;;;34.78;21.35;;;;;;;;;;5073499;28;20207;-66
2021/12/04 03:51:18;;;;;;;34.10;20.63;;;;;;;;;;5073059;28;20273;-67
2021/12/04 03:53:45;;;;;;;37.22;21.52;;;;;;;;;;5073468;28;20200;-67
2021/12/04 03:56:15;;;;;;;18.80;9.05;;;;;;;;;;5073382;28;20241;-66
2021/12/04 03:58:43;;;;;;;19.15;7.32;;;;;;;;;;5073563;28;20328;-67
2021/12/04 04:01:12;;;;;;;17.73;7.60;;;;;;;;;;5073216;28;20219;-67
2021/12/04 04:03:39;;;;;;;22.08;6.63;;;;;;;;;;5073050;28;20208;-66
2021/12/04 04:06:06;;;;;;;15.32;3.53;;;;;;;;;;5073296;28;20224;-67
2021/12/04 04:08:34;;;;;;;17.73;6.65;;;;;;;;;;5073147;28;20204;-66
2021/12/04 04:11:01;;;;;;;40.17;24.05;;;;;;;;;;5073022;28;20297;-66
2021/12/04 04:13:29;;;;;;;23.65;9.05;;;;;;;;;;5065994;28;20715;-67
2021/12/04 04:15:58;;;;;;;15.30;4.75;;;;;;;;;;5073140;28;20323;-67
2021/12/04 04:18:27;;;;;;;19.33;6.93;;;;;;;;;;5073102;28;20208;-67
2021/12/04 04:20:55;;;;;;;18.73;8.93;;;;;;;;;;5073092;28;20677;-67
2021/12/04 04:23:22;;;;;;;46.85;25.88;;;;;;;;;;5072652;28;20240;-67
2021/12/04 04:25:50;;;;;;;39.95;23.20;;;;;;;;;;5072619;28;20216;-67
2021/12/04 04:28:17;;;;;;;17.63;9.35;;;;;;;;;;5072727;28;20209;-66
2021/12/04 04:30:45;;;;;;;44.63;23.92;;;;;;;;;;5072766;28;20216;-68
2021/12/04 04:33:14;;;;;;;60.72;31.33;;;;;;;;;;5072631;28;20218;-69
2021/12/04 04:35:44;;;;;;;37.20;21.85;;;;;;;;;;5072700;28;20278;-67
2021/12/04 04:38:27;;;;;;;31.85;19.52;;;;;;;;;;5072195;28;20239;-67
2021/12/04 04:57:46;;;;;;;53.35;29.35;;;;;;;;;;5072142;28;20741;-67
2021/12/04 05:11:38;;;;;;;37.60;19.25;;;;;;;;;;5071390;28;20324;-67
2021/12/04 05:14:06;;;;;;;82.22;35.30;;;;;;;;;;5072000;28;20215;-66
2021/12/04 05:16:44;;;;;;;94.03;39.30;;;;;;;;;;5065357;28;20212;-69
2021/12/04 05:19:26;;;;;;;69.88;31.88;;;;;;;;;;5066121;28;20201;-67
2021/12/04 05:21:54;;;;;;;93.10;39.00;;;;;;;;;;5071832;28;20283;-67
2021/12/04 05:24:23;;;;;;;84.00;35.33;;;;;;;;;;5071885;28;20240;-67
2021/12/04 05:26:50;;;;;;;56.58;28.77;;;;;;;;;;5071643;28;20209;-67
2021/12/04 05:29:18;;;;;;;60.78;29.88;;;;;;;;;;5071388;28;20212;-67
2021/12/04 05:31:45;;;;;;;94.55;37.10;;;;;;;;;;5071519;28;20323;-67
2021/12/04 05:34:13;;;;;;;96.70;36.22;;;;;;;;;;5071426;28;20204;-67
2021/12/04 05:36:40;;;;;;;74.05;32.92;;;;;;;;;;5071180;28;20243;-68
2021/12/04 05:39:08;;;;;;;61.75;29.20;;;;;;;;;;5071506;28;20236;-67
2021/12/04 05:41:37;;;;;;;46.80;26.45;;;;;;;;;;5071349;28;20244;-66
2021/12/04 05:44:07;;;;;;;46.53;25.35;;;;;;;;;;5071263;28;20215;-68
2021/12/04 05:46:38;;;;;;;79.03;34.05;;;;;;;;;;5071646;28;20197;-67
2021/12/04 05:49:10;;;;;;;48.03;26.25;;;;;;;;;;5071587;28;20567;-67
2021/12/04 05:51:51;;;;;;;79.18;35.83;;;;;;;;;;5071377;28;20247;-67
2021/12/04 05:54:30;;;;;;;65.20;30.95;;;;;;;;;;5071339;28;20263;-66
2021/12/04 05:57:00;;;;;;;78.93;33.53;;;;;;;;;;5071543;28;20228;-66
2021/12/04 05:59:27;;;;;;;76.65;34.85;;;;;;;;;;5070709;28;20206;-69
2021/12/04 06:01:55;;;;;;;134.85;36.08;;;;;;;;;;5070859;28;20749;-67
2021/12/04 06:04:22;;;;;;;61.47;29.70;;;;;;;;;;5071079;28;20299;-67
2021/12/04 06:06:50;;;;;;;38.75;21.33;;;;;;;;;;5070981;28;20215;-68
2021/12/04 06:09:17;;;;;;;29.65;15.23;;;;;;;;;;5070434;28;20653;-67
2021/12/04 06:11:44;;;;;;;27.67;7.97;;;;;;;;;;5070385;28;20701;-68
2021/12/04 06:14:13;;;;;;;18.40;5.70;;;;;;;;;;5070740;28;20207;-66
2021/12/04 06:16:41;;;;;;;23.15;6.65;;;;;;;;;;5070813;28;20204;-67
2021/12/04 06:19:12;;;;;;;24.73;8.57;;;;;;;;;;5070681;28;20208;-67
2021/12/04 06:24:21;;;;;;;21.10;6.15;;;;;;;;;;5037018;28;20248;-67
2021/12/04 06:26:48;;;;;;;26.02;6.72;;;;;;;;;;5070623;28;20208;-67
2021/12/04 06:29:17;;;;;;;21.25;5.90;;;;;;;;;;5070808;28;20208;-66
2021/12/04 06:31:44;;;;;;;21.83;5.95;;;;;;;;;;5070720;28;20256;-66
2021/12/04 06:34:12;;;;;;;13.38;3.22;;;;;;;;;;5070861;28;20239;-66
2021/12/04 06:36:39;;;;;;;17.38;3.03;;;;;;;;;;5070539;28;20691;-68
2021/12/04 06:39:06;;;;;;;24.02;7.05;;;;;;;;;;5070224;28;20232;-66
2021/12/04 06:41:34;;;;;;;33.78;9.85;;;;;;;;;;5070421;28;20210;-66
2021/12/04 06:44:01;;;;;;;21.83;5.50;;;;;;;;;;5070814;28;20743;-66
2021/12/04 06:46:30;;;;;;;22.27;5.75;;;;;;;;;;5070554;28;20222;-65
2021/12/04 06:49:04;;;;;;;24.23;5.93;;;;;;;;;;5070458;28;20238;-66
2021/12/04 06:51:33;;;;;;;26.90;7.60;;;;;;;;;;5070342;28;20295;-67
2021/12/04 06:54:04;;;;;;;18.67;4.95;;;;;;;;;;5070418;28;20208;-66
2021/12/04 06:56:34;;;;;;;22.98;5.38;;;;;;;;;;5070821;28;20295;-66
2021/12/04 06:59:06;;;;;;;20.77;6.93;;;;;;;;;;5070427;28;20204;-66
2021/12/04 07:01:35;;;;;;;22.13;6.00;;;;;;;;;;5070474;28;20208;-66
2021/12/04 07:04:02;;;;;;;17.48;4.47;;;;;;;;;;5070448;28;20200;-66
2021/12/04 07:06:30;;;;;;;17.25;3.78;;;;;;;;;;5070384;28;20235;-66
2021/12/04 07:08:58;;;;;;;15.10;3.10;;;;;;;;;;5070702;28;20236;-66
2021/12/04 07:11:25;;;;;;;18.90;4.15;;;;;;;;;;5070005;28;20284;-66
2021/12/04 07:13:53;;;;;;;22.15;5.32;;;;;;;;;;5070405;28;20287;-67
2021/12/04 07:16:21;;;;;;;18.63;4.10;;;;;;;;;;5070228;28;20232;-66
2021/12/04 07:18:51;;;;;;;22.20;4.90;;;;;;;;;;5069970;28;20247;-66
2021/12/04 07:21:18;;;;;;;22.67;4.88;;;;;;;;;;5071949;28;20227;-67
2021/12/04 07:23:46;;;;;;;21.17;4.95;;;;;;;;;;5074043;28;20297;-66
2021/12/04 07:26:13;;;;;;;15.40;2.70;;;;;;;;;;5073922;28;20201;-66
2021/12/04 07:28:41;;;;;;;15.80;2.95;;;;;;;;;;5067332;28;20201;-66
2021/12/04 07:31:09;;;;;;;16.02;3.55;;;;;;;;;;5073811;28;20212;-67
2021/12/04 07:33:36;;;;;;;24.05;6.22;;;;;;;;;;5073775;28;20289;-66
2021/12/04 07:36:06;;;;;;;18.88;4.90;;;;;;;;;;5074176;28;20228;-66
2021/12/04 07:38:33;;;;;;;17.13;3.95;;;;;;;;;;5073485;28;20712;-66
2021/12/04 07:41:03;;;;;;;16.88;3.65;;;;;;;;;;5073601;28;20299;-66
2021/12/04 07:43:30;;;;;;;23.92;5.13;;;;;;;;;;5073475;28;20695;-67
2021/12/04 07:45:58;;;;;;;17.65;3.33;;;;;;;;;;5073561;28;20244;-66
2021/12/04 07:48:25;;;;;;;17.27;4.38;;;;;;;;;;5073886;28;20250;-67
2021/12/04 07:50:53;;;;;;;19.33;4.68;;;;;;;;;;5067399;28;20299;-66
2021/12/04 07:53:22;;;;;;;19.33;4.05;;;;;;;;;;5073252;28;20323;-66
2021/12/04 07:55:49;;;;;;;16.08;2.60;;;;;;;;;;5073359;28;20209;-66
2021/12/04 07:58:17;;;;;;;19.58;5.63;;;;;;;;;;5073219;28;20685;-67
2021/12/04 08:00:44;;;;;;;22.35;5.30;;;;;;;;;;5073294;28;20821;-65
2021/12/04 08:03:12;;;;;;;20.17;3.22;;;;;;;;;;5073240;28;20213;-66
2021/12/04 08:05:39;;;;;;;18.38;4.38;;;;;;;;;;5073044;28;20209;-66
2021/12/04 08:08:07;;;;;;;18.15;3.80;;;;;;;;;;5073164;28;20214;-66
2021/12/04 08:10:36;;;;;;;17.50;3.25;;;;;;;;;;5073311;28;20208;-65
2021/12/04 08:13:04;;;;;;;15.30;3.28;;;;;;;;;;5066068;28;20693;-66
2021/12/04 08:15:31;;;;;;;23.67;5.78;;;;;;;;;;5073169;28;20206;-66
2021/12/04 08:17:58;;;;;;;14.68;2.97;;;;;;;;;;5072950;28;20204;-66
2021/12/04 08:20:26;;;;;;;14.30;3.08;;;;;;;;;;5072915;28;20215;-66
2021/12/04 08:22:56;;;;;;;14.88;2.47;;;;;;;;;;5072945;28;20204;-66
2021/12/04 08:25:24;;;;;;;23.65;5.55;;;;;;;;;;5072502;28;20208;-66
2021/12/04 08:27:53;;;;;;;16.92;3.95;;;;;;;;;;5072756;28;20296;-66
2021/12/04 08:30:23;;;;;;;15.07;2.88;;;;;;;;;;5072938;28;20681;-66
2021/12/04 08:32:52;;;;;;;15.05;4.53;;;;;;;;;;5072548;28;20285;-67
2021/12/04 08:35:19;;;;;;;13.98;2.15;;;;;;;;;;5072497;28;20208;-66
2021/12/04 08:37:47;;;;;;;13.63;3.22;;;;;;;;;;5072619;28;20263;-66
2021/12/04 08:40:15;;;;;;;33.72;9.65;;;;;;;;;;5072554;28;20922;-68
2021/12/04 08:42:43;;;;;;;30.27;8.65;;;;;;;;;;5072807;28;20196;-66
2021/12/04 08:45:13;;;;;;;22.05;5.75;;;;;;;;;;5072494;28;20674;-66
2021/12/04 08:47:40;;;;;;;18.98;4.78;;;;;;;;;;5072202;28;20209;-67
2021/12/04 08:50:09;;;;;;;15.63;3.65;;;;;;;;;;5072495;28;20303;-66
2021/12/04 08:52:37;;;;;;;22.40;5.07;;;;;;;;;;5072181;28;20914;-66
2021/12/04 08:55:04;;;;;;;19.52;4.95;;;;;;;;;;5072334;28;20676;-65
2021/12/04 08:57:32;;;;;;;25.38;7.05;;;;;;;;;;5072150;28;20235;-65
2021/12/04 08:59:59;;;;;;;17.50;4.75;;;;;;;;;;5072757;28;20239;-66
2021/12/04 09:02:28;;;;;;;16.80;3.70;;;;;;;;;;5065743;28;20211;-66
2021/12/04 09:04:57;;;;;;;13.20;2.42;;;;;;;;;;5071943;28;20209;-67
2021/12/04 09:07:25;;;;;;;13.45;2.97;;;;;;;;;;5072063;28;20224;-66
2021/12/04 09:09:55;;;;;;;14.93;3.70;;;;;;;;;;5072087;28;20684;-66
2021/12/04 09:12:24;;;;;;;15.77;3.92;;;;;;;;;;5071751;28;20224;-66
2021/12/04 09:14:52;;;;;;;14.05;3.63;;;;;;;;;;5072009;28;20627;-66
2021/12/04 09:17:20;;;;;;;16.98;4.50;;;;;;;;;;5071642;28;20316;-66
2021/12/04 09:19:49;;;;;;;18.23;4.00;;;;;;;;;;5071729;28;20262;-66
2021/12/04 09:22:24;;;;;;;17.98;4.20;;;;;;;;;;5071909;28;20212;-67
2021/12/04 09:24:55;;;;;;;16.70;3.75;;;;;;;;;;5071893;28;20200;-66
2021/12/04 09:27:35;;;;;;;17.88;4.55;;;;;;;;;;5071404;28;20219;-66
2021/12/04 09:30:11;;;;;;;14.05;3.00;;;;;;;;;;5071889;28;20208;-66
2021/12/04 09:35:54;;;;;;;20.70;4.57;;;;;;;;;;5071367;28;20260;-66
2021/12/04 10:00:38;;;;;;;18.80;4.88;;;;;;;;;;5071183;28;20211;-65
2021/12/04 10:18:13;;;;;;;25.33;6.30;;;;;;;;;;5054385;28;20223;-66
2021/12/04 10:20:50;;;;;;;15.77;3.15;;;;;;;;;;5071157;28;20219;-66
2021/12/04 10:34:27;;;;;;;26.75;12.10;;;;;;;;;;5070669;28;20682;-66
2021/12/04 10:36:55;;;;;;;26.02;7.93;;;;;;;;;;5070583;28;20833;-66
2021/12/04 10:39:22;;;;;;;26.67;8.35;;;;;;;;;;5070454;28;20331;-66
2021/12/04 10:41:56;;;;;;;24.70;7.70;;;;;;;;;;5070578;28;20291;-66
2021/12/04 10:44:25;;;;;;;16.02;4.07;;;;;;;;;;5070556;28;20212;-66
2021/12/04 10:46:57;;;;;;;23.52;6.93;;;;;;;;;;5070549;28;20303;-66
2021/12/04 10:49:37;;;;;;;27.20;8.45;;;;;;;;;;5070272;28;20680;-66
2021/12/04 10:52:12;;;;;;;24.92;6.72;;;;;;;;;;5071056;28;20307;-66
2021/12/04 10:54:42;;;;;;;19.10;5.57;;;;;;;;;;5071473;28;20835;-68
2021/12/04 10:57:42;;;;;;;24.38;6.38;;;;;;;;;;5074591;28;20208;-66
2021/12/04 11:00:16;;;;;;;25.77;6.75;;;;;;;;;;5074936;28;20736;-66
2021/12/04 11:02:47;;;;;;;27.17;8.35;;;;;;;;;;5074849;28;20212;-66
2021/12/04 11:05:44;;;;;;;33.22;11.00;;;;;;;;;;5074597;28;20215;-66
2021/12/04 11:19:55;;;;;;;31.80;9.55;;;;;;;;;;5074105;28;20292;-66
2021/12/04 11:22:28;;;;;;;33.28;11.05;;;;;;;;;;5068468;28;20657;-66
2021/12/04 11:38:48;;;;;;;25.58;12.18;;;;;;;;;;5069260;28;20240;-66
2021/12/04 11:41:30;;;;;;;25.90;8.18;;;;;;;;;;5073859;28;20219;-67
2021/12/04 11:44:03;;;;;;;24.05;7.03;;;;;;;;;;5073883;28;20213;-66
2021/12/04 11:46:45;;;;;;;20.88;8.55;;;;;;;;;;5073993;28;20209;-67
2021/12/04 11:49:14;;;;;;;16.38;3.83;;;;;;;;;;5073986;28;20550;-66
2021/12/04 11:51:55;;;;;;;23.63;7.85;;;;;;;;;;5073235;28;20212;-66
2021/12/04 11:54:23;;;;;;;22.02;6.97;;;;;;;;;;5073589;28;20235;-66
2021/12/04 11:56:58;;;;;;;23.27;7.82;;;;;;;;;;5073393;28;20215;-67
2021/12/04 11:59:27;;;;;;;30.95;10.07;;;;;;;;;;5073064;28;20215;-67
2021/12/04 12:01:59;;;;;;;26.70;8.95;;;;;;;;;;5073308;28;20244;-66
2021/12/04 12:04:33;;;;;;;27.17;8.30;;;;;;;;;;5073255;28;21173;-66
2021/12/04 12:07:10;;;;;;;22.33;8.40;;;;;;;;;;5072831;28;20601;-67
2021/12/04 12:09:39;;;;;;;27.98;8.80;;;;;;;;;;5073159;28;20204;-66
2021/12/04 12:12:09;;;;;;;32.72;10.40;;;;;;;;;;5073069;28;20307;-66
2021/12/04 12:14:41;;;;;;;29.95;8.85;;;;;;;;;;5072886;28;20264;-67
2021/12/04 12:17:10;;;;;;;27.30;10.45;;;;;;;;;;5073493;28;20208;-66
2021/12/04 12:19:39;;;;;;;51.35;28.80;;;;;;;;;;5072846;28;20211;-66
2021/12/04 12:22:15;;;;;;;46.25;25.60;;;;;;;;;;5072845;28;20296;-67
2021/12/04 12:24:56;;;;;;;73.68;34.67;;;;;;;;;;5073092;28;20211;-67
2021/12/04 12:27:30;;;;;;;38.22;19.88;;;;;;;;;;5072931;28;20200;-66
2021/12/04 12:33:01;;;;;;;22.20;8.90;;;;;;;;;;5072948;28;20219;-67
2021/12/04 12:38:16;;;;;;;58.25;29.50;;;;;;;;;;5066929;28;20236;-66
2021/12/04 12:40:44;;;;;;;23.65;5.07;;;;;;;;;;5072998;28;20584;-70
2021/12/04 12:43:17;;;;;;;21.13;6.22;;;;;;;;;;5072928;28;20213;-67
2021/12/04 12:45:53;;;;;;;24.80;8.98;;;;;;;;;;5072483;28;20226;-66
2021/12/04 12:48:22;;;;;;;17.45;6.85;;;;;;;;;;5066105;28;20216;-67
2021/12/04 12:50:50;;;;;;;22.73;11.30;;;;;;;;;;5072456;28;20211;-66
2021/12/04 12:53:19;;;;;;;21.05;5.43;;;;;;;;;;5072113;28;20705;-66
2021/12/04 12:55:47;;;;;;;25.83;7.97;;;;;;;;;;5072399;28;20212;-66
2021/12/04 12:58:17;;;;;;;24.05;6.38;;;;;;;;;;5072150;28;20205;-66
2021/12/04 13:12:00;;;;;;;28.42;8.43;;;;;;;;;;5072011;28;20334;-67
2021/12/04 13:14:30;;;;;;;22.55;6.45;;;;;;;;;;5071884;28;20239;-66
2021/12/04 13:17:05;;;;;;;27.80;6.32;;;;;;;;;;5071950;28;20204;-67
2021/12/04 13:19:36;;;;;;;30.33;8.07;;;;;;;;;;5070797;28;20212;-67
2021/12/04 13:22:05;;;;;;;19.92;6.25;;;;;;;;;;5072004;28;20227;-66
2021/12/04 13:24:34;;;;;;;20.98;5.20;;;;;;;;;;5072011;28;20240;-66
2021/12/04 13:29:37;;;;;;;34.05;11.13;;;;;;;;;;5071428;28;20215;-68
2021/12/04 13:32:05;;;;;;;26.23;7.60;;;;;;;;;;5071923;28;20212;-66
2021/12/04 13:34:35;;;;;;;23.40;7.05;;;;;;;;;;5071417;28;20318;-66
2021/12/04 13:37:02;;;;;;;24.48;7.53;;;;;;;;;;5071381;28;20693;-66
2021/12/04 13:39:30;;;;;;;26.50;8.10;;;;;;;;;;5071481;28;20241;-66
2021/12/04 13:41:58;;;;;;;21.83;7.07;;;;;;;;;;5071297;28;20655;-67
2021/12/04 13:44:27;;;;;;;26.10;7.80;;;;;;;;;;5071286;28;20604;-68
2021/12/04 13:46:56;;;;;;;19.58;5.18;;;;;;;;;;5071478;28;20201;-66
2021/12/04 13:49:26;;;;;;;29.40;7.80;;;;;;;;;;5071089;28;20200;-66
2021/12/04 13:51:56;;;;;;;23.05;5.95;;;;;;;;;;5071603;28;20208;-66
2021/12/04 13:54:24;;;;;;;23.90;7.10;;;;;;;;;;5071150;28;20224;-67
2021/12/04 13:56:51;;;;;;;23.85;7.85;;;;;;;;;;5071036;28;20307;-67
2021/12/04 13:59:22;;;;;;;28.20;8.10;;;;;;;;;;5070895;28;20665;-66
2021/12/04 14:01:50;;;;;;;14.20;3.35;;;;;;;;;;5071210;28;20613;-68
2021/12/04 14:04:17;;;;;;;25.55;6.07;;;;;;;;;;5071046;28;20299;-66
2021/12/04 14:06:49;;;;;;;23.48;5.95;;;;;;;;;;5071162;28;20636;-66
2021/12/04 14:09:17;;;;;;;85.20;40.47;;;;;;;;;;5070797;28;20634;-67
2021/12/04 14:11:45;;;;;;;29.02;9.23;;;;;;;;;;5070783;28;20231;-66
2021/12/04 14:14:13;;;;;;;20.02;6.85;;;;;;;;;;5070943;28;20232;-66
2021/12/04 14:16:40;;;;;;;15.38;4.18;;;;;;;;;;5070780;28;20206;-66
2021/12/04 14:19:15;;;;;;;23.52;6.30;;;;;;;;;;5070809;28;20219;-66
2021/12/04 14:21:42;;;;;;;21.98;7.47;;;;;;;;;;5070627;28;20210;-66
2021/12/04 14:24:10;;;;;;;26.55;8.63;;;;;;;;;;5070712;28;20223;-66
2021/12/04 14:26:39;;;;;;;25.75;8.80;;;;;;;;;;5070664;28;20208;-66
2021/12/04 14:29:06;;;;;;;29.00;8.80;;;;;;;;;;5070500;28;20291;-67
2021/12/04 14:31:33;;;;;;;22.10;5.05;;;;;;;;;;5070774;28;20668;-66
2021/12/04 14:34:01;;;;;;;27.67;8.60;;;;;;;;;;5070894;28;20263;-68
2021/12/04 14:36:28;;;;;;;31.38;8.77;;;;;;;;;;5070989;28;20299;-66
2021/12/04 14:38:58;;;;;;;24.60;6.88;;;;;;;;;;5070621;28;20304;-68
2021/12/04 14:41:31;;;;;;;36.28;11.25;;;;;;;;;;5070396;28;20211;-67
2021/12/04 14:43:59;;;;;;;38.80;11.00;;;;;;;;;;5070507;28;20208;-66
2021/12/04 14:46:29;;;;;;;30.98;9.38;;;;;;;;;;5070542;28;20266;-66
2021/12/04 14:48:57;;;;;;;31.13;9.93;;;;;;;;;;5070505;28;20641;-67
2021/12/04 14:51:26;;;;;;;27.05;8.57;;;;;;;;;;5070441;28;20205;-66
2021/12/04 14:53:54;;;;;;;27.80;8.30;;;;;;;;;;5070590;28;20244;-67
2021/12/04 14:56:22;;;;;;;30.77;8.30;;;;;;;;;;5070466;28;20200;-66
2021/12/04 14:58:50;;;;;;;23.60;7.03;;;;;;;;;;5070483;28;20213;-66
2021/12/04 15:01:20;;;;;;;24.27;6.95;;;;;;;;;;5070215;28;20657;-67
2021/12/04 15:03:51;;;;;;;19.52;6.55;;;;;;;;;;5070901;28;20204;-66
2021/12/04 15:06:19;;;;;;;26.15;8.00;;;;;;;;;;5070343;28;20204;-66
2021/12/04 15:08:47;;;;;;;39.28;14.73;;;;;;;;;;5070188;28;20662;-67
2021/12/04 15:11:18;;;;;;;88.47;32.33;;;;;;;;;;5070229;28;20220;-66
2021/12/04 15:13:51;;;;;;;56.80;21.60;;;;;;;;;;5070146;28;20216;-66
2021/12/04 15:16:29;;;;;;;30.90;10.38;;;;;;;;;;5070467;28;20205;-66
2021/12/04 15:19:07;;;;;;;28.50;8.07;;;;;;;;;;5070474;28;20222;-67
2021/12/04 15:21:39;;;;;;;29.98;10.57;;;;;;;;;;5070030;28;20231;-66
2021/12/04 15:24:07;;;;;;;26.55;8.50;;;;;;;;;;5070101;28;20239;-67
2021/12/04 15:26:34;;;;;;;19.38;6.28;;;;;;;;;;5070071;28;20753;-66
2021/12/04 15:29:02;;;;;;;18.50;5.85;;;;;;;;;;5070080;28;20208;-66
2021/12/04 15:31:30;;;;;;;40.53;12.25;;;;;;;;;;5069934;28;20213;-66
2021/12/04 15:33:59;;;;;;;21.50;6.80;;;;;;;;;;5069874;28;20653;-67
2021/12/04 15:36:28;;;;;;;20.15;6.82;;;;;;;;;;5069979;28;20570;-67
2021/12/04 15:38:58;;;;;;;23.38;6.45;;;;;;;;;;5070086;28;21050;-68
2021/12/04 15:41:40;;;;;;;23.70;8.00;;;;;;;;;;5064430;28;20214;-69
2021/12/04 15:44:28;;;;;;;29.10;9.85;;;;;;;;;;5068627;28;20261;-66
2021/12/04 15:47:13;;;;;;;22.25;7.28;;;;;;;;;;5073619;28;20301;-66
2021/12/04 15:50:08;;;;;;;30.83;10.93;;;;;;;;;;5073458;28;20207;-66
2021/12/04 15:52:58;;;;;;;29.17;12.15;;;;;;;;;;5068234;28;20204;-68
2021/12/04 15:55:29;;;;;;;32.38;11.07;;;;;;;;;;5073141;28;20232;-67
2021/12/04 15:57:58;;;;;;;28.27;9.60;;;;;;;;;;5073830;28;20208;-67
2021/12/04 16:00:26;;;;;;;23.80;7.15;;;;;;;;;;5073640;28;20235;-66
2021/12/04 16:02:58;;;;;;;27.60;9.10;;;;;;;;;;5073516;28;20204;-66
2021/12/04 16:05:27;;;;;;;35.20;10.27;;;;;;;;;;5073526;28;20632;-67
2021/12/04 16:08:02;;;;;;;47.42;15.40;;;;;;;;;;5073328;28;20219;-66
2021/12/04 16:10:29;;;;;;;33.65;10.55;;;;;;;;;;5073218;28;20208;-67
2021/12/04 16:12:58;;;;;;;29.75;8.50;;;;;;;;;;5073105;28;20228;-67
2021/12/04 16:15:26;;;;;;;24.95;7.75;;;;;;;;;;5072929;28;20232;-66
2021/12/04 16:17:55;;;;;;;23.23;6.90;;;;;;;;;;5073030;28;20601;-66
2021/12/04 16:20:23;;;;;;;22.00;6.85;;;;;;;;;;5073013;28;20204;-67
2021/12/04 16:22:52;;;;;;;18.75;5.90;;;;;;;;;;5073013;28;20209;-66
2021/12/04 16:25:22;;;;;;;20.45;5.80;;;;;;;;;;5073358;28;20293;-67
2021/12/04 16:27:58;;;;;;;22.05;6.80;;;;;;;;;;5072968;28;20268;-67
2021/12/04 16:33:29;;;;;;;28.50;8.63;;;;;;;;;;5062556;28;20208;-66
2021/12/04 16:36:03;;;;;;;32.15;9.38;;;;;;;;;;5072732;28;20232;-68
2021/12/04 16:38:30;;;;;;;30.20;8.77;;;;;;;;;;5066134;28;20236;-66
2021/12/04 16:41:02;;;;;;;27.10;8.55;;;;;;;;;;5072825;28;20669;-66
2021/12/04 16:43:32;;;;;;;31.33;9.00;;;;;;;;;;5072396;28;20231;-65
2021/12/04 16:46:01;;;;;;;27.45;9.90;;;;;;;;;;5072726;28;20212;-66
2021/12/04 16:48:35;;;;;;;22.40;6.22;;;;;;;;;;5072761;28;20204;-66
2021/12/04 16:56:47;;;;;;;21.80;6.82;;;;;;;;;;5067162;28;20207;-66
2021/12/04 16:59:16;;;;;;;24.15;8.13;;;;;;;;;;5072470;28;20269;-66
2021/12/04 17:01:44;;;;;;;29.25;9.63;;;;;;;;;;5072311;28;20354;-66
2021/12/04 17:04:14;;;;;;;29.05;8.93;;;;;;;;;;5072153;28;20209;-70
2021/12/04 17:06:42;;;;;;;31.33;11.65;;;;;;;;;;5066094;28;20223;-67
2021/12/04 17:09:10;;;;;;;37.15;12.70;;;;;;;;;;5072136;28;20254;-66
2021/12/04 17:11:37;;;;;;;33.65;11.82;;;;;;;;;;5072118;28;20233;-67
2021/12/04 17:14:05;;;;;;;27.58;9.30;;;;;;;;;;5072234;28;20307;-67